Time;durP1;ratioP1;P1;durP2;ratioP2;P2;SDS_P1;SDS_P2;PMS_P1;PMS_P2;Temp;Humidity;BMP_temperature;BMP_pressure;BME280_temperature;BME280_humidity;BME280_pressure;Samples;Min_cycle;Max_cycle;Signal;HPM_P1;HPM_P2
2022/07/30 00:00:53;;;;;;;2.70;2.25;;;20.10;95.00;;;;;;5052267;28;20184;-62
2022/07/30 00:03:19;;;;;;;2.42;2.22;;;20.00;95.30;;;;;;5052020;28;20182;-62
2022/07/30 00:05:44;;;;;;;2.90;2.17;;;20.00;95.60;;;;;;5052442;28;20272;-62
2022/07/30 00:08:10;;;;;;;5.38;2.30;;;20.00;95.90;;;;;;5052267;28;20189;-62
2022/07/30 00:10:35;;;;;;;2.50;2.30;;;20.00;96.10;;;;;;5052381;28;20223;-62
2022/07/30 00:13:01;;;;;;;3.03;2.40;;;20.00;96.40;;;;;;5051872;28;20188;-62
2022/07/30 00:15:26;;;;;;;2.45;2.25;;;19.90;96.60;;;;;;5051984;28;20178;-62
2022/07/30 00:17:52;;;;;;;2.78;2.40;;;19.80;96.90;;;;;;5051745;28;20235;-62
2022/07/30 00:20:18;;;;;;;4.28;2.50;;;19.80;97.40;;;;;;5051785;28;20173;-62
2022/07/30 00:22:44;;;;;;;2.42;2.22;;;19.70;97.60;;;;;;5051740;28;20304;-62
2022/07/30 00:25:09;;;;;;;2.75;2.50;;;19.70;97.80;;;;;;5051814;28;20304;-62
2022/07/30 00:27:35;;;;;;;2.50;2.30;;;19.70;98.10;;;;;;5052500;28;20185;-62
2022/07/30 00:30:02;;;;;;;3.10;2.13;;;19.70;98.10;;;;;;5051098;28;20207;-62
2022/07/30 00:32:28;;;;;;;2.65;2.40;;;19.70;98.00;;;;;;5051710;28;20264;-62
2022/07/30 00:34:53;;;;;;;2.75;2.42;;;19.60;98.10;;;;;;5052106;28;20360;-62
2022/07/30 00:37:19;;;;;;;2.50;2.30;;;19.60;98.40;;;;;;5050679;28;20263;-62
2022/07/30 00:39:44;;;;;;;2.65;2.45;;;19.60;98.50;;;;;;5051763;28;20273;-62
2022/07/30 00:42:10;;;;;;;3.47;2.47;;;19.60;98.70;;;;;;5049780;28;20196;-62
2022/07/30 00:44:35;;;;;;;2.72;2.40;;;19.50;98.80;;;;;;5051467;28;20196;-62
2022/07/30 00:47:01;;;;;;;2.88;2.40;;;19.50;98.80;;;;;;5051146;28;20188;-62
2022/07/30 00:49:27;;;;;;;2.70;2.47;;;19.50;99.10;;;;;;5050168;28;20502;-62
2022/07/30 00:51:52;;;;;;;2.35;2.20;;;19.40;99.30;;;;;;5051383;28;20181;-63
2022/07/30 00:54:18;;;;;;;2.42;2.22;;;19.30;99.40;;;;;;5050653;28;20177;-62
2022/07/30 00:56:43;;;;;;;2.40;2.20;;;19.30;99.60;;;;;;5051491;28;20245;-62
2022/07/30 00:59:09;;;;;;;4.22;2.58;;;19.20;99.90;;;;;;5050075;28;20177;-62
2022/07/30 01:01:35;;;;;;;2.58;2.25;;;19.10;99.90;;;;;;5051417;28;20225;-62
2022/07/30 01:04:01;;;;;;;2.33;1.98;;;19.00;99.90;;;;;;5051179;28;20223;-62
2022/07/30 01:06:27;;;;;;;2.65;2.20;;;18.90;99.90;;;;;;5051375;28;20185;-62
2022/07/30 01:08:53;;;;;;;2.63;2.42;;;18.90;99.90;;;;;;5051076;28;20197;-63
2022/07/30 01:11:19;;;;;;;2.70;2.50;;;18.90;99.90;;;;;;5051118;28;20558;-62
2022/07/30 01:13:44;;;;;;;3.10;2.40;;;18.90;99.90;;;;;;5050031;28;20181;-62
2022/07/30 01:16:10;;;;;;;2.85;2.63;;;18.80;99.90;;;;;;5050790;28;20209;-62
2022/07/30 01:21:35;;;;;;;2.95;2.50;;;18.80;99.90;;;;;;5051002;28;20184;-63
2022/07/30 01:24:29;;;;;;;3.33;2.72;;;18.80;99.90;;;;;;5050504;28;20312;-62
2022/07/30 01:26:56;;;;;;;2.63;2.40;;;18.70;99.90;;;;;;5050693;28;20268;-64
2022/07/30 01:29:22;;;;;;;2.40;2.20;;;18.70;99.90;;;;;;5050928;28;20196;-64
2022/07/30 01:31:52;;;;;;;3.15;2.58;;;18.70;99.90;;;;;;5049749;28;20185;-64
2022/07/30 01:34:19;;;;;;;2.45;2.25;;;18.70;99.90;;;;;;5050996;28;20685;-64
2022/07/30 01:36:45;;;;;;;2.40;2.20;;;18.70;99.90;;;;;;5031597;28;20228;-64
2022/07/30 01:39:13;;;;;;;2.72;2.40;;;18.70;99.90;;;;;;5046967;28;20268;-63
2022/07/30 01:41:40;;;;;;;2.13;2.03;;;18.60;99.90;;;;;;5052634;28;20637;-64
2022/07/30 01:44:07;;;;;;;2.53;2.30;;;18.60;99.90;;;;;;5054934;28;20276;-64
2022/07/30 01:46:33;;;;;;;3.03;2.50;;;18.60;99.90;;;;;;5055179;28;20217;-64
2022/07/30 01:48:59;;;;;;;2.40;2.20;;;18.50;99.90;;;;;;5054888;28;20490;-64
2022/07/30 01:51:26;;;;;;;2.28;2.17;;;18.50;99.90;;;;;;5055146;28;20718;-63
2022/07/30 01:53:52;;;;;;;2.55;2.35;;;18.50;99.90;;;;;;5054835;28;20250;-64
2022/07/30 01:56:22;;;;;;;3.30;2.45;;;18.40;99.90;;;;;;5054247;28;20247;-64
2022/07/30 01:58:49;;;;;;;3.60;2.45;;;18.40;99.90;;;;;;5055013;28;20331;-64
2022/07/30 02:01:15;;;;;;;2.80;2.40;;;18.40;99.90;;;;;;5054208;28;20189;-64
2022/07/30 02:03:40;;;;;;;2.53;2.33;;;18.40;99.90;;;;;;5054723;28;20481;-65
2022/07/30 02:06:31;;;;;;;2.50;2.30;;;18.40;99.90;;;;;;5054753;28;20188;-65
2022/07/30 02:09:00;;;;;;;2.53;2.33;;;18.30;99.90;;;;;;5044912;28;20631;-64
2022/07/30 02:14:21;;;;;;;3.10;2.25;;;18.30;99.90;;;;;;5054417;28;20246;-64
2022/07/30 02:16:51;;;;;;;2.75;2.50;;;18.20;99.90;;;;;;5053864;28;20721;-64
2022/07/30 02:19:18;;;;;;;2.67;2.47;;;18.20;99.90;;;;;;5054044;28;20185;-64
2022/07/30 02:21:47;;;;;;;4.80;2.72;;;18.20;99.90;;;;;;5054052;28;20208;-64
2022/07/30 02:24:18;;;;;;;5.50;3.30;;;18.10;99.90;;;;;;5053984;28;20232;-64
2022/07/30 02:26:48;;;;;;;5.90;3.28;;;18.10;99.90;;;;;;5051957;28;20188;-64
2022/07/30 02:29:17;;;;;;;3.72;2.90;;;18.10;99.90;;;;;;5053732;28;20646;-64
2022/07/30 02:31:43;;;;;;;3.90;2.63;;;18.10;99.90;;;;;;5054175;28;20199;-64
2022/07/30 02:34:11;;;;;;;3.53;2.60;;;18.10;99.90;;;;;;5053663;28;20219;-64
2022/07/30 02:36:40;;;;;;;7.78;2.70;;;18.10;99.90;;;;;;5053644;28;20253;-64
2022/07/30 02:39:08;;;;;;;2.63;2.38;;;18.00;99.90;;;;;;5053768;28;20177;-64
2022/07/30 02:41:35;;;;;;;4.38;2.70;;;18.00;99.90;;;;;;5053717;28;20192;-64
2022/07/30 02:44:01;;;;;;;3.00;2.70;;;18.00;99.90;;;;;;5053640;28;20181;-64
2022/07/30 02:46:28;;;;;;;3.55;3.03;;;17.90;99.90;;;;;;5053844;28;20189;-64
2022/07/30 02:48:55;;;;;;;6.00;3.05;;;17.90;99.90;;;;;;5054307;28;20170;-64
2022/07/30 02:51:21;;;;;;;5.35;3.63;;;17.90;99.90;;;;;;5053442;28;20616;-64
2022/07/30 02:53:50;;;;;;;3.33;3.03;;;17.90;99.90;;;;;;5053935;28;20537;-64
2022/07/30 02:56:17;;;;;;;3.08;2.78;;;17.80;99.90;;;;;;5052126;28;20201;-64
2022/07/30 02:58:44;;;;;;;3.30;3.00;;;17.80;99.90;;;;;;5053691;28;20191;-64
2022/07/30 03:01:12;;;;;;;3.15;2.92;;;17.70;99.90;;;;;;5052746;28;20579;-65
2022/07/30 03:03:39;;;;;;;4.60;2.88;;;17.70;99.90;;;;;;5053064;28;20185;-64
2022/07/30 03:06:06;;;;;;;4.53;2.88;;;17.70;99.90;;;;;;5053227;28;20193;-64
2022/07/30 03:08:33;;;;;;;4.50;2.90;;;17.60;99.90;;;;;;5053295;28;20191;-64
2022/07/30 03:10:59;;;;;;;3.95;2.90;;;17.60;99.90;;;;;;5052919;28;20174;-64
2022/07/30 03:13:25;;;;;;;3.35;2.85;;;17.60;99.90;;;;;;5053321;28;20177;-64
2022/07/30 03:15:52;;;;;;;3.50;3.10;;;17.60;99.90;;;;;;5053007;28;20551;-64
2022/07/30 03:18:20;;;;;;;7.18;4.57;;;17.50;99.90;;;;;;5052623;28;20227;-64
2022/07/30 03:20:52;;;;;;;3.67;3.25;;;17.50;99.90;;;;;;5052844;28;20227;-64
2022/07/30 03:23:19;;;;;;;3.33;3.03;;;17.50;99.90;;;;;;5052404;28;20228;-64
2022/07/30 03:25:49;;;;;;;6.47;2.90;;;17.40;99.90;;;;;;5052750;28;20184;-64
2022/07/30 03:28:16;;;;;;;3.63;3.33;;;17.40;99.90;;;;;;5047192;28;20192;-64
2022/07/30 03:30:45;;;;;;;3.97;2.92;;;17.40;99.90;;;;;;5052983;28;20239;-64
2022/07/30 03:33:12;;;;;;;7.28;3.28;;;17.40;99.90;;;;;;5052560;28;20196;-64
2022/07/30 03:35:41;;;;;;;4.10;3.17;;;17.40;99.90;;;;;;5052833;28;20239;-64
2022/07/30 03:38:09;;;;;;;5.38;3.15;;;17.50;99.90;;;;;;5045656;28;20181;-64
2022/07/30 03:40:35;;;;;;;4.03;3.63;;;17.40;99.90;;;;;;5052730;28;20239;-64
2022/07/30 03:43:01;;;;;;;4.78;3.47;;;17.40;99.90;;;;;;5052215;28;20189;-64
2022/07/30 03:45:27;;;;;;;4.35;3.03;;;17.50;99.90;;;;;;5052746;28;20174;-64
2022/07/30 03:47:54;;;;;;;4.22;3.60;;;17.50;99.90;;;;;;5052885;28;20177;-64
2022/07/30 03:50:19;;;;;;;3.55;3.25;;;17.50;99.90;;;;;;5051168;28;20189;-64
2022/07/30 03:52:45;;;;;;;5.00;3.42;;;17.50;99.90;;;;;;5052613;28;20695;-64
2022/07/30 03:55:11;;;;;;;3.72;3.17;;;17.40;99.90;;;;;;5052108;28;20181;-64
2022/07/30 03:57:37;;;;;;;3.63;3.33;;;17.40;99.90;;;;;;5051940;28;20333;-64
2022/07/30 04:00:07;;;;;;;4.65;3.63;;;17.40;99.90;;;;;;5050943;28;20886;-64
2022/07/30 04:02:40;;;;;;;3.95;3.58;;;17.40;99.90;;;;;;5051876;28;20216;-64
2022/07/30 04:05:06;;;;;;;5.05;3.47;;;17.50;99.90;;;;;;5051336;28;20177;-64
2022/07/30 04:07:31;;;;;;;4.72;3.40;;;17.50;99.90;;;;;;5052024;28;20192;-64
2022/07/30 04:09:57;;;;;;;5.25;3.33;;;17.50;99.90;;;;;;5051651;28;20180;-64
2022/07/30 04:12:22;;;;;;;4.30;3.42;;;17.50;99.90;;;;;;5051685;28;20204;-64
2022/07/30 04:14:48;;;;;;;5.90;3.83;;;17.60;99.90;;;;;;5051714;28;20507;-64
2022/07/30 04:17:38;;;;;;;4.47;3.72;;;17.60;99.90;;;;;;5051833;28;20314;-64
2022/07/30 04:20:09;;;;;;;5.85;3.63;;;17.70;99.90;;;;;;5050048;28;20545;-64
2022/07/30 04:22:36;;;;;;;4.88;3.78;;;17.70;99.90;;;;;;5044149;28;20220;-64
2022/07/30 04:25:05;;;;;;;3.92;3.38;;;17.70;99.90;;;;;;5051204;28;20173;-64
2022/07/30 04:27:31;;;;;;;8.52;3.92;;;17.70;99.90;;;;;;5051948;28;20714;-64
2022/07/30 04:29:57;;;;;;;4.78;3.40;;;17.70;99.90;;;;;;5051644;28;20656;-64
2022/07/30 04:32:22;;;;;;;5.75;3.58;;;17.70;99.90;;;;;;5051949;28;20173;-64
2022/07/30 04:34:50;;;;;;;5.55;3.80;;;17.80;99.90;;;;;;5050441;28;20188;-64
2022/07/30 04:37:17;;;;;;;7.75;3.67;;;17.80;99.90;;;;;;5050179;28;20692;-64
2022/07/30 04:39:43;;;;;;;4.10;3.60;;;17.80;99.90;;;;;;5051699;28;20194;-64
2022/07/30 04:42:09;;;;;;;4.90;4.20;;;17.80;99.90;;;;;;5051862;28;20181;-64
2022/07/30 04:44:35;;;;;;;4.93;3.70;;;17.80;99.90;;;;;;5051161;28;20671;-64
2022/07/30 04:47:00;;;;;;;8.65;3.88;;;17.90;99.90;;;;;;5050823;28;20181;-64
2022/07/30 04:49:27;;;;;;;4.82;3.97;;;17.90;99.90;;;;;;5051288;28;20240;-63
2022/07/30 04:51:53;;;;;;;4.75;3.63;;;18.10;99.90;;;;;;5051318;28;20179;-62
2022/07/30 04:54:22;;;;;;;5.53;3.60;;;18.30;99.90;;;;;;5051532;28;20187;-62
2022/07/30 04:56:49;;;;;;;4.03;3.60;;;18.50;99.90;;;;;;5050939;28;20303;-67
2022/07/30 04:59:17;;;;;;;3.95;3.53;;;18.80;99.90;;;;;;5051176;28;20600;-65
2022/07/30 05:01:47;;;;;;;4.43;3.40;;;19.20;99.90;;;;;;5051195;28;20181;-62
2022/07/30 05:04:14;;;;;;;4.82;3.53;;;19.60;99.90;;;;;;5050822;28;20207;-64
2022/07/30 05:06:41;;;;;;;4.50;3.53;;;20.00;99.90;;;;;;5051576;28;20568;-66
2022/07/30 05:09:07;;;;;;;4.43;3.50;;;20.40;99.90;;;;;;5050757;28;20180;-65
2022/07/30 05:11:32;;;;;;;7.30;3.88;;;20.80;99.90;;;;;;5051157;28;20182;-63
2022/07/30 05:13:58;;;;;;;6.60;3.80;;;21.10;99.20;;;;;;5051127;28;20173;-66
2022/07/30 05:16:24;;;;;;;9.57;3.60;;;21.30;99.00;;;;;;5050490;28;20251;-65
2022/07/30 05:18:49;;;;;;;14.82;3.80;;;21.40;98.30;;;;;;5051033;28;20238;-63
2022/07/30 05:21:15;;;;;;;15.40;4.13;;;21.40;98.00;;;;;;5051160;28;20264;-65
2022/07/30 05:23:41;;;;;;;7.72;3.90;;;21.50;98.00;;;;;;5050592;28;20260;-65
2022/07/30 05:26:06;;;;;;;5.07;3.42;;;21.70;97.90;;;;;;5050357;28;20250;-63
2022/07/30 05:28:32;;;;;;;4.40;3.10;;;22.10;97.30;;;;;;5051397;28;20173;-63
2022/07/30 05:30:57;;;;;;;8.25;3.78;;;22.40;96.70;;;;;;5060915;28;20612;-65
2022/07/30 05:33:23;;;;;;;10.68;3.67;;;22.40;96.20;;;;;;5062294;28;20667;-65
2022/07/30 05:35:49;;;;;;;5.38;3.60;;;22.70;96.00;;;;;;5051003;28;20193;-65
2022/07/30 05:38:16;;;;;;;6.93;3.40;;;23.00;94.90;;;;;;5065373;28;20259;-64
2022/07/30 05:40:43;;;;;;;3.90;3.30;;;23.40;94.90;;;;;;5051779;28;20702;-63
2022/07/30 05:43:09;;;;;;;5.03;2.90;;;23.80;93.90;;;;;;5051285;28;20178;-63
2022/07/30 05:45:34;;;;;;;4.93;3.10;;;24.00;93.40;;;;;;5050869;28;20269;-64
2022/07/30 05:48:00;;;;;;;7.53;3.22;;;24.20;92.80;;;;;;5050860;28;20252;-65
2022/07/30 05:50:26;;;;;;;8.35;2.78;;;24.60;92.00;;;;;;5051025;28;20587;-65
2022/07/30 05:52:51;;;;;;;4.95;2.63;;;24.90;91.50;;;;;;5049077;28;20185;-65
2022/07/30 05:55:17;;;;;;;4.47;2.72;;;25.20;90.70;;;;;;5050468;28;20222;-65
2022/07/30 05:57:42;;;;;;;4.07;2.90;;;25.40;90.00;;;;;;5050097;28;20217;-66
2022/07/30 06:00:12;;;;;;;3.47;2.97;;;25.40;88.60;;;;;;5050533;28;20180;-64
2022/07/30 06:02:41;;;;;;;6.20;2.97;;;25.40;88.40;;;;;;5047730;28;20264;-64
2022/07/30 06:05:07;;;;;;;3.15;2.70;;;25.30;88.10;;;;;;5049520;28;20197;-64
2022/07/30 06:07:33;;;;;;;4.97;3.10;;;25.60;88.10;;;;;;5051140;28;20672;-65
2022/07/30 06:09:59;;;;;;;5.32;2.97;;;26.20;86.20;;;;;;5050569;28;20339;-65
2022/07/30 06:12:28;;;;;;;4.78;2.70;;;26.70;83.40;;;;;;5050973;28;20680;-65
2022/07/30 06:14:54;;;;;;;4.13;2.70;;;27.10;81.40;;;;;;5051121;28;20224;-65
2022/07/30 06:17:20;;;;;;;5.68;2.88;;;27.50;79.60;;;;;;5050940;28;20252;-65
2022/07/30 06:19:45;;;;;;;5.82;2.83;;;27.90;77.00;;;;;;5051190;28;20174;-65
2022/07/30 06:22:11;;;;;;;3.28;2.63;;;28.40;75.70;;;;;;5050486;28;20190;-65
2022/07/30 06:24:36;;;;;;;5.10;2.88;;;28.60;73.30;;;;;;5049589;28;20200;-65
2022/07/30 06:27:02;;;;;;;9.32;3.10;;;28.30;72.20;;;;;;5052362;28;20562;-65
2022/07/30 06:29:28;;;;;;;3.88;2.70;;;28.20;73.00;;;;;;5054549;28;20173;-66
2022/07/30 06:31:53;;;;;;;4.95;2.95;;;28.10;73.20;;;;;;5054522;28;20176;-66
2022/07/30 06:34:19;;;;;;;3.42;2.65;;;27.90;72.80;;;;;;5054247;28;20241;-65
2022/07/30 06:36:44;;;;;;;4.65;3.13;;;28.10;72.70;;;;;;5054353;28;20209;-65
2022/07/30 06:39:10;;;;;;;4.28;3.50;;;28.40;72.10;;;;;;5054155;28;20181;-65
2022/07/30 06:41:36;;;;;;;5.60;3.33;;;28.30;71.00;;;;;;5054346;28;20185;-65
2022/07/30 06:44:01;;;;;;;7.82;2.75;;;28.80;71.30;;;;;;5054304;28;20173;-65
2022/07/30 06:46:27;;;;;;;4.85;2.95;;;29.20;69.10;;;;;;5054311;28;20169;-66
2022/07/30 06:48:52;;;;;;;5.65;2.95;;;29.40;68.00;;;;;;5054252;28;20243;-66
2022/07/30 06:51:18;;;;;;;5.07;3.00;;;29.20;66.10;;;;;;5054068;28;20230;-66
2022/07/30 06:53:44;;;;;;;5.68;2.95;;;28.90;67.20;;;;;;5049421;28;20585;-65
2022/07/30 06:56:10;;;;;;;7.22;2.80;;;28.80;67.60;;;;;;5033963;28;20210;-65
2022/07/30 06:58:36;;;;;;;4.50;2.58;;;29.30;67.80;;;;;;5034962;28;20181;-65
2022/07/30 07:01:01;;;;;;;5.18;2.45;;;30.00;65.00;;;;;;5054148;28;20169;-66
2022/07/30 07:03:27;;;;;;;4.03;3.00;;;30.60;63.20;;;;;;5054043;28;20250;-65
2022/07/30 07:05:52;;;;;;;5.38;3.35;;;31.20;59.30;;;;;;5054096;28;20184;-65
2022/07/30 07:08:18;;;;;;;5.53;2.97;;;30.90;58.30;;;;;;5053829;28;20189;-65
2022/07/30 07:10:43;;;;;;;6.00;3.20;;;30.40;58.90;;;;;;5036093;28;20264;-65
2022/07/30 07:13:09;;;;;;;4.20;2.42;;;30.10;59.20;;;;;;5053723;28;20264;-65
2022/07/30 07:15:34;;;;;;;4.32;2.22;;;30.30;59.90;;;;;;5053883;28;20173;-65
2022/07/30 07:18:00;;;;;;;5.13;2.70;;;30.60;59.60;;;;;;5053627;28;20259;-65
2022/07/30 07:20:25;;;;;;;3.60;2.70;;;31.30;58.20;;;;;;5052599;28;20177;-65
2022/07/30 07:22:51;;;;;;;5.55;3.00;;;31.40;57.00;;;;;;5053597;28;20225;-66
2022/07/30 07:25:17;;;;;;;5.47;2.67;;;31.10;57.10;;;;;;5053393;28;20204;-66
2022/07/30 07:27:42;;;;;;;3.45;2.42;;;31.00;57.30;;;;;;5053636;28;20538;-66
2022/07/30 07:30:08;;;;;;;3.50;2.42;;;31.20;57.30;;;;;;5053389;28;20268;-65
2022/07/30 07:32:35;;;;;;;5.68;3.83;;;31.60;56.70;;;;;;5053565;28;20185;-65
2022/07/30 07:35:01;;;;;;;5.88;2.83;;;31.90;55.60;;;;;;5053339;28;20724;-66
2022/07/30 07:37:27;;;;;;;5.22;2.47;;;31.80;54.90;;;;;;5051513;28;20225;-66
2022/07/30 07:39:52;;;;;;;3.20;2.40;;;31.50;55.30;;;;;;5052739;28;20272;-66
2022/07/30 07:42:18;;;;;;;6.32;2.45;;;31.40;55.10;;;;;;5053172;28;20185;-65
2022/07/30 07:44:43;;;;;;;5.10;2.85;;;31.60;55.20;;;;;;5053315;28;20705;-65
2022/07/30 07:47:09;;;;;;;4.10;2.80;;;31.60;54.40;;;;;;5051897;28;20696;-66
2022/07/30 07:49:34;;;;;;;4.45;2.47;;;31.50;54.80;;;;;;5053192;28;20185;-65
2022/07/30 07:51:59;;;;;;;2.40;2.13;;;31.70;54.50;;;;;;5052829;28;20251;-65
2022/07/30 07:54:25;;;;;;;4.32;3.28;;;32.40;54.80;;;;;;5053051;28;20178;-66
2022/07/30 07:56:51;;;;;;;7.93;3.70;;;33.30;51.20;;;;;;5052977;28;20307;-66
2022/07/30 07:59:16;;;;;;;6.60;3.22;;;33.50;50.30;;;;;;5052759;28;20195;-66
2022/07/30 08:01:42;;;;;;;5.50;2.90;;;33.10;50.30;;;;;;5052911;28;20229;-66
2022/07/30 08:04:08;;;;;;;4.78;2.72;;;32.60;51.90;;;;;;5052796;28;20178;-66
2022/07/30 08:06:35;;;;;;;3.83;2.83;;;32.20;52.40;;;;;;5052795;28;20265;-66
2022/07/30 08:09:00;;;;;;;5.15;2.72;;;32.00;52.60;;;;;;5052789;28;20170;-66
2022/07/30 08:11:26;;;;;;;4.28;2.65;;;31.50;53.40;;;;;;5052911;28;20177;-66
2022/07/30 08:13:52;;;;;;;4.20;2.60;;;31.80;53.80;;;;;;5052731;28;20453;-66
2022/07/30 08:16:17;;;;;;;4.18;2.50;;;32.40;52.90;;;;;;5052377;28;20555;-66
2022/07/30 08:18:43;;;;;;;4.05;2.58;;;33.00;52.30;;;;;;5052677;28;20224;-65
2022/07/30 08:21:08;;;;;;;5.28;2.50;;;33.50;51.20;;;;;;5052529;28;20173;-66
2022/07/30 08:23:34;;;;;;;4.70;2.67;;;33.80;50.00;;;;;;5052344;28;20232;-66
2022/07/30 08:25:59;;;;;;;6.65;2.55;;;34.30;49.10;;;;;;5052371;28;20180;-66
2022/07/30 08:28:25;;;;;;;5.53;2.63;;;34.40;48.60;;;;;;5052368;28;20177;-65
2022/07/30 08:30:51;;;;;;;7.20;2.80;;;33.70;49.00;;;;;;5052401;28;20173;-66
2022/07/30 08:33:17;;;;;;;4.30;2.67;;;33.10;49.90;;;;;;5052194;28;20162;-66
2022/07/30 08:35:42;;;;;;;3.53;2.75;;;32.60;50.40;;;;;;5052354;28;20181;-66
2022/07/30 08:38:08;;;;;;;10.77;5.90;;;32.70;51.50;;;;;;5052055;28;20223;-66
2022/07/30 08:40:35;;;;;;;6.13;3.25;;;33.20;50.60;;;;;;5052382;28;20315;-66
2022/07/30 08:43:04;;;;;;;7.65;2.80;;;34.00;49.80;;;;;;5052133;28;20234;-66
2022/07/30 08:45:31;;;;;;;4.90;2.92;;;34.30;48.40;;;;;;5052223;28;20181;-66
2022/07/30 08:48:00;;;;;;;4.32;2.70;;;34.00;48.30;;;;;;5052077;28;20239;-66
2022/07/30 08:50:28;;;;;;;6.95;3.20;;;33.80;49.20;;;;;;5051828;28;20177;-66
2022/07/30 08:52:54;;;;;;;4.10;3.03;;;33.00;49.30;;;;;;5052039;28;20177;-66
2022/07/30 08:55:24;;;;;;;5.75;2.60;;;32.30;49.70;;;;;;5052047;28;20181;-66
2022/07/30 08:57:50;;;;;;;4.28;2.47;;;32.00;51.20;;;;;;5051933;28;20213;-65
2022/07/30 09:00:17;;;;;;;3.40;2.33;;;31.80;52.00;;;;;;5051758;28;20173;-65
2022/07/30 09:02:43;;;;;;;4.65;2.58;;;32.00;51.80;;;;;;5051942;28;20185;-66
2022/07/30 09:05:10;;;;;;;3.33;2.47;;;32.10;50.70;;;;;;5051799;28;20180;-65
2022/07/30 09:07:36;;;;;;;4.82;2.50;;;32.30;50.90;;;;;;5051536;28;20177;-66
2022/07/30 09:10:03;;;;;;;2.67;2.35;;;32.50;49.90;;;;;;5051767;28;20660;-66
2022/07/30 09:12:40;;;;;;;2.47;2.10;;;32.80;48.10;;;;;;5051691;28;20706;-65
2022/07/30 09:15:19;;;;;;;3.08;2.28;;;32.90;48.80;;;;;;5051728;28;20630;-66
2022/07/30 09:17:51;;;;;;;4.25;2.67;;;33.30;48.80;;;;;;5051590;28;20665;-65
2022/07/30 09:20:18;;;;;;;4.20;2.55;;;33.50;47.90;;;;;;5051493;28;20246;-66
2022/07/30 09:22:47;;;;;;;4.82;2.20;;;32.50;49.30;;;;;;5051558;28;20245;-66
2022/07/30 09:25:13;;;;;;;5.43;2.50;;;32.40;48.80;;;;;;5051479;28;20248;-66
2022/07/30 09:27:47;;;;;;;4.18;2.38;;;32.50;49.00;;;;;;5051552;28;20197;-66
2022/07/30 09:30:13;;;;;;;3.88;2.60;;;32.80;49.00;;;;;;5051588;28;20205;-66
2022/07/30 09:32:53;;;;;;;6.18;2.70;;;32.70;48.90;;;;;;5051611;28;20699;-66
2022/07/30 09:35:19;;;;;;;4.38;2.35;;;32.50;49.30;;;;;;5051364;28;20220;-66
2022/07/30 09:37:45;;;;;;;4.75;2.80;;;31.90;49.10;;;;;;5051604;28;20213;-66
2022/07/30 09:40:15;;;;;;;4.07;2.25;;;31.50;49.20;;;;;;5051478;28;20181;-66
2022/07/30 09:42:41;;;;;;;5.07;2.47;;;31.40;49.70;;;;;;5051481;28;20530;-66
2022/07/30 09:45:12;;;;;;;3.65;2.25;;;31.50;49.00;;;;;;5051459;28;20178;-66
2022/07/30 09:47:40;;;;;;;2.83;2.00;;;31.70;50.10;;;;;;5051426;28;20180;-66
2022/07/30 09:50:15;;;;;;;5.13;2.20;;;32.20;49.70;;;;;;5051365;28;20250;-66
2022/07/30 09:52:44;;;;;;;5.43;2.45;;;32.00;47.20;;;;;;5051425;28;20283;-66
2022/07/30 09:55:10;;;;;;;5.70;2.85;;;32.00;47.60;;;;;;5051325;28;20170;-66
2022/07/30 09:57:56;;;;;;;5.35;2.20;;;32.20;48.30;;;;;;5051343;28;20245;-66
2022/07/30 10:00:24;;;;;;;3.60;1.90;;;32.60;48.00;;;;;;5051239;28;20185;-66
2022/07/30 10:02:51;;;;;;;3.08;2.25;;;33.00;48.20;;;;;;5054300;28;20258;-66
2022/07/30 10:05:18;;;;;;;4.45;2.00;;;33.10;45.90;;;;;;5054891;28;20173;-66
2022/07/30 10:07:52;;;;;;;2.60;2.15;;;33.10;45.80;;;;;;5055146;28;20177;-66
2022/07/30 10:10:20;;;;;;;4.00;2.97;;;33.50;46.10;;;;;;5054944;28;20185;-66
2022/07/30 10:12:49;;;;;;;2.45;1.83;;;34.00;45.80;;;;;;5055156;28;20697;-66
2022/07/30 10:15:18;;;;;;;4.05;2.30;;;34.50;45.70;;;;;;5054748;28;20186;-66
2022/07/30 10:17:45;;;;;;;3.88;1.80;;;34.70;43.90;;;;;;5054912;28;20263;-66
2022/07/30 10:20:11;;;;;;;2.50;1.98;;;34.50;43.60;;;;;;5054737;28;20173;-66
2022/07/30 10:22:37;;;;;;;2.63;1.88;;;34.20;43.40;;;;;;5054603;28;20221;-66
2022/07/30 10:25:04;;;;;;;3.83;1.80;;;34.00;43.40;;;;;;5054819;28;20173;-66
2022/07/30 10:27:30;;;;;;;2.05;1.70;;;34.10;45.30;;;;;;5054746;28;20166;-66
2022/07/30 10:29:57;;;;;;;1.75;1.65;;;34.60;43.20;;;;;;5054723;28;20316;-66
2022/07/30 10:32:25;;;;;;;3.70;1.88;;;34.70;41.60;;;;;;5054494;28;20201;-66
2022/07/30 10:34:51;;;;;;;2.42;1.77;;;34.70;41.80;;;;;;5054653;28;20518;-66
2022/07/30 10:37:19;;;;;;;2.10;1.90;;;34.40;42.80;;;;;;5054300;28;20215;-66
2022/07/30 10:39:52;;;;;;;1.85;1.70;;;33.90;42.20;;;;;;5054495;28;20174;-66
2022/07/30 10:42:34;;;;;;;3.28;1.67;;;33.70;42.90;;;;;;5054272;28;20181;-66
2022/07/30 10:45:00;;;;;;;3.97;1.95;;;33.90;42.40;;;;;;5054239;28;20200;-66
2022/07/30 10:47:26;;;;;;;2.30;2.10;;;34.30;42.50;;;;;;5054411;28;20173;-66
2022/07/30 10:50:05;;;;;;;3.40;1.60;;;34.80;41.40;;;;;;5054315;28;20200;-66
2022/07/30 10:52:49;;;;;;;2.58;1.63;;;34.30;41.70;;;;;;5054204;28;20189;-66
2022/07/30 10:55:17;;;;;;;1.80;1.70;;;34.20;41.50;;;;;;5054160;28;20949;-66
2022/07/30 10:58:04;;;;;;;3.40;1.80;;;33.90;42.10;;;;;;5054082;28;20328;-66
2022/07/30 11:00:33;;;;;;;2.25;1.83;;;33.40;42.40;;;;;;5053951;28;20177;-66
2022/07/30 11:03:19;;;;;;;2.15;1.80;;;32.90;43.60;;;;;;5053871;28;20184;-66
2022/07/30 11:05:47;;;;;;;4.00;1.70;;;32.50;43.60;;;;;;5053985;28;20533;-66
2022/07/30 11:08:33;;;;;;;2.58;1.90;;;32.60;44.50;;;;;;5053939;28;20177;-66
2022/07/30 11:11:00;;;;;;;3.28;2.25;;;33.00;44.40;;;;;;5053786;28;20177;-66
2022/07/30 11:13:52;;;;;;;2.38;1.70;;;33.20;43.70;;;;;;5053549;28;20223;-66
2022/07/30 11:16:23;;;;;;;3.28;1.63;;;33.50;44.30;;;;;;5052345;28;20206;-66
2022/07/30 11:19:07;;;;;;;3.25;1.70;;;33.60;43.00;;;;;;5053814;28;20213;-66
2022/07/30 11:21:33;;;;;;;1.85;1.52;;;33.00;43.00;;;;;;5053708;28;20184;-66
2022/07/30 11:23:59;;;;;;;2.83;1.75;;;32.70;44.20;;;;;;5053366;28;20229;-66
2022/07/30 11:26:40;;;;;;;1.92;1.70;;;32.20;44.60;;;;;;5053551;28;20181;-66
2022/07/30 11:29:06;;;;;;;3.92;1.80;;;32.00;45.20;;;;;;5053439;28;20185;-66
2022/07/30 11:31:37;;;;;;;2.55;1.85;;;31.80;45.40;;;;;;5053515;28;20239;-66
2022/07/30 11:34:18;;;;;;;2.50;2.03;;;31.70;46.10;;;;;;5053423;28;20231;-66
2022/07/30 11:37:18;;;;;;;4.75;1.85;;;31.90;46.70;;;;;;5053379;28;20228;-66
2022/07/30 11:39:53;;;;;;;4.70;1.90;;;32.20;45.70;;;;;;5041214;28;20533;-66
2022/07/30 11:42:29;;;;;;;2.88;1.95;;;32.40;45.80;;;;;;5053137;28;20314;-66
2022/07/30 11:45:21;;;;;;;3.05;1.80;;;32.50;45.90;;;;;;5052055;28;20533;-66
2022/07/30 11:47:52;;;;;;;2.85;1.90;;;32.70;46.40;;;;;;5053182;28;20294;-66
2022/07/30 11:50:29;;;;;;;2.28;1.70;;;32.80;45.80;;;;;;5052996;28;20181;-66
2022/07/30 11:53:06;;;;;;;3.40;1.90;;;32.90;46.10;;;;;;5053045;28;20266;-66
2022/07/30 11:55:38;;;;;;;4.40;1.65;;;32.90;45.30;;;;;;5052933;28;20180;-65
2022/07/30 11:58:06;;;;;;;2.75;2.15;;;32.60;45.40;;;;;;5052761;28;20213;-65
2022/07/30 12:00:39;;;;;;;2.55;1.90;;;31.90;46.60;;;;;;5052610;28;20180;-66
2022/07/30 12:03:14;;;;;;;5.40;2.17;;;31.80;47.20;;;;;;5052682;28;20192;-66
2022/07/30 12:05:40;;;;;;;3.95;2.10;;;31.80;47.20;;;;;;5052800;28;20179;-66
2022/07/30 12:08:07;;;;;;;3.03;2.03;;;32.00;47.70;;;;;;5052697;28;20166;-66
2022/07/30 12:10:34;;;;;;;3.45;1.98;;;32.20;47.40;;;;;;5052791;28;20185;-66
2022/07/30 12:13:15;;;;;;;3.05;2.00;;;32.50;47.20;;;;;;5052583;28;20178;-66
2022/07/30 12:15:43;;;;;;;2.35;1.83;;;32.50;45.90;;;;;;5052717;28;20606;-66
2022/07/30 12:18:15;;;;;;;6.07;2.15;;;32.50;45.80;;;;;;5052452;28;20239;-66
2022/07/30 12:20:40;;;;;;;2.90;1.88;;;32.40;45.80;;;;;;5052537;28;20172;-66
2022/07/30 12:23:13;;;;;;;5.13;2.90;;;32.20;45.70;;;;;;5052450;28;20217;-66
2022/07/30 12:25:40;;;;;;;3.80;1.90;;;32.30;46.90;;;;;;5051737;28;20173;-66
2022/07/30 12:28:07;;;;;;;5.43;1.83;;;32.50;46.10;;;;;;5052252;28;20534;-66
2022/07/30 12:30:33;;;;;;;4.75;2.10;;;32.50;45.20;;;;;;5052493;28;20723;-66
2022/07/30 12:32:59;;;;;;;2.55;1.65;;;32.40;44.70;;;;;;5052282;28;20177;-66
2022/07/30 12:35:45;;;;;;;2.50;1.70;;;32.40;45.10;;;;;;5052378;28;20177;-66
2022/07/30 12:38:11;;;;;;;3.85;1.80;;;32.60;44.70;;;;;;5052170;28;20217;-66
2022/07/30 12:40:49;;;;;;;3.15;1.90;;;32.30;44.20;;;;;;5052141;28;20173;-66
2022/07/30 12:43:15;;;;;;;2.88;1.73;;;32.10;44.00;;;;;;5050747;28;20606;-66
2022/07/30 12:45:41;;;;;;;6.05;1.73;;;32.10;44.30;;;;;;5052114;28;20264;-66
2022/07/30 12:48:10;;;;;;;3.33;1.58;;;32.30;43.80;;;;;;5051994;28;20509;-66
2022/07/30 12:50:35;;;;;;;2.35;1.80;;;32.60;44.20;;;;;;5051928;28;20185;-66
2022/07/30 12:53:01;;;;;;;2.40;1.63;;;32.60;44.20;;;;;;5051876;28;20609;-66
2022/07/30 12:55:34;;;;;;;2.65;1.80;;;32.80;43.90;;;;;;5052100;28;20221;-66